createdAt,value
2019-06-25T00:00:43.811Z,4.00
2019-06-25T00:01:43.829Z,4.00
2019-06-25T00:02:43.853Z,4.00
2019-06-25T00:03:43.897Z,4.00
2019-06-25T00:04:43.907Z,0.00
2019-06-25T00:05:43.933Z,4.00
2019-06-25T00:06:43.955Z,4.00
2019-06-25T00:07:43.978Z,4.00
2019-06-25T00:08:44.023Z,4.00
2019-06-25T00:09:44.035Z,4.00
2019-06-25T00:10:44.055Z,4.00
2019-06-25T00:11:44.103Z,4.00
2019-06-25T00:12:44.105Z,4.00
2019-06-25T00:13:44.130Z,4.00
2019-06-25T00:14:44.157Z,4.00
2019-06-25T00:15:44.178Z,4.00
2019-06-25T00:16:44.203Z,4.00
2019-06-25T00:17:44.233Z,4.00
2019-06-25T00:18:44.263Z,4.00
2019-06-25T00:19:44.280Z,4.00
2019-06-25T00:20:44.324Z,4.00
2019-06-25T00:21:44.331Z,4.00
2019-06-25T00:22:44.365Z,4.00
2019-06-25T00:23:45.256Z,4.00
2019-06-25T00:24:44.409Z,4.00
2019-06-25T00:25:44.441Z,4.00
2019-06-25T00:26:44.455Z,4.00
2019-06-25T00:27:44.489Z,4.00
2019-06-25T00:28:44.508Z,4.00
2019-06-25T00:29:55.638Z,4.00
2019-06-25T00:30:44.569Z,4.00
2019-06-25T00:31:44.583Z,4.00
2019-06-25T00:32:44.608Z,4.00
2019-06-25T00:33:44.640Z,4.00
2019-06-25T00:34:44.664Z,4.00
2019-06-25T00:35:44.699Z,4.00
2019-06-25T00:36:44.706Z,4.00
2019-06-25T00:37:44.733Z,4.00
2019-06-25T00:38:44.756Z,4.00
2019-06-25T00:39:44.784Z,4.00
2019-06-25T00:40:44.814Z,4.00
2019-06-25T00:41:44.835Z,4.00
2019-06-25T00:42:44.862Z,4.00
2019-06-25T00:43:44.891Z,4.00
2019-06-25T00:44:44.910Z,4.00
2019-06-25T00:45:44.939Z,4.00
2019-06-25T00:46:44.964Z,4.00
2019-06-25T00:47:44.984Z,4.00
2019-06-25T00:48:45.018Z,4.00
2019-06-25T00:49:45.034Z,4.00
2019-06-25T00:50:45.056Z,4.00
2019-06-25T00:51:45.104Z,4.00
2019-06-25T00:52:45.117Z,4.00
2019-06-25T00:53:45.137Z,4.00
2019-06-25T00:54:45.161Z,4.00
2019-06-25T00:55:45.182Z,4.00
2019-06-25T00:56:45.610Z,4.00
2019-06-25T00:57:45.248Z,4.00
2019-06-25T00:58:45.257Z,4.00
2019-06-25T00:59:45.282Z,4.00
2019-06-25T01:00:45.338Z,4.00
2019-06-25T01:01:45.331Z,4.00
2019-06-25T01:02:45.362Z,4.00
2019-06-25T01:03:45.381Z,4.00
2019-06-25T01:04:45.405Z,4.00
2019-06-25T01:05:45.439Z,4.00
2019-06-25T01:06:45.455Z,4.00
2019-06-25T01:07:45.482Z,4.00
2019-06-25T01:08:45.504Z,4.00
2019-06-25T01:09:45.529Z,4.00
2019-06-25T01:10:45.556Z,4.00
2019-06-25T01:11:45.579Z,4.00
2019-06-25T01:12:45.610Z,4.00
2019-06-25T01:13:45.634Z,4.00
2019-06-25T01:14:45.659Z,4.00
2019-06-25T01:15:45.677Z,4.00
2019-06-25T01:16:45.705Z,4.00
2019-06-25T01:17:45.735Z,4.00
2019-06-25T01:18:45.751Z,4.00
2019-06-25T01:19:45.782Z,4.00
2019-06-25T01:20:45.808Z,4.00
2019-06-25T01:21:45.828Z,4.00
2019-06-25T01:22:45.895Z,4.00
2019-06-25T01:23:45.878Z,4.00
2019-06-25T01:24:45.902Z,4.00
2019-06-25T01:25:45.927Z,4.00
2019-06-25T01:26:45.956Z,4.00
2019-06-25T01:27:45.981Z,4.00
2019-06-25T01:28:46.008Z,4.00
2019-06-25T01:29:46.030Z,4.00
2019-06-25T01:30:46.052Z,4.00
2019-06-25T01:31:46.080Z,4.00
2019-06-25T01:32:46.096Z,4.00
2019-06-25T01:33:46.127Z,4.00
2019-06-25T01:34:46.156Z,4.00
2019-06-25T01:35:46.181Z,4.00
2019-06-25T01:36:46.195Z,4.00
2019-06-25T01:37:46.219Z,4.00
2019-06-25T01:38:46.250Z,4.00
2019-06-25T01:39:46.268Z,4.00
2019-06-25T01:40:46.302Z,4.00
2019-06-25T01:41:46.320Z,4.00
2019-06-25T01:42:46.342Z,4.00
2019-06-25T01:43:46.368Z,4.00
2019-06-25T01:44:46.394Z,4.00
2019-06-25T01:45:46.450Z,4.00
2019-06-25T01:46:46.439Z,4.00
2019-06-25T01:47:46.464Z,4.00
2019-06-25T01:48:46.489Z,4.00
2019-06-25T01:49:46.522Z,4.00
2019-06-25T01:50:46.540Z,4.00
2019-06-25T01:51:46.565Z,4.00
2019-06-25T01:52:46.594Z,4.00
2019-06-25T01:53:46.617Z,4.00
2019-06-25T01:54:46.640Z,4.00
2019-06-25T01:55:46.669Z,4.00
2019-06-25T01:56:46.685Z,4.00
2019-06-25T01:57:46.712Z,4.00
2019-06-25T01:58:46.735Z,4.00
2019-06-25T01:59:46.767Z,4.00
2019-06-25T02:00:46.785Z,4.00
2019-06-25T02:01:46.807Z,4.00
2019-06-25T02:02:46.840Z,4.00
2019-06-25T02:03:46.856Z,4.00
2019-06-25T02:04:48.298Z,4.00
2019-06-25T02:05:46.907Z,4.00
2019-06-25T02:06:46.937Z,4.00
2019-06-25T02:07:46.963Z,4.00
2019-06-25T02:08:46.983Z,4.00
2019-06-25T02:09:47.009Z,4.00
2019-06-25T02:10:47.031Z,4.00
2019-06-25T02:11:47.051Z,0.00
2019-06-25T02:12:47.088Z,4.00
2019-06-25T02:13:47.101Z,4.00
2019-06-25T02:14:47.129Z,4.00
2019-06-25T02:15:47.149Z,4.00
2019-06-25T02:16:47.182Z,4.00
2019-06-25T02:17:47.204Z,4.00
2019-06-25T02:18:47.228Z,4.00
2019-06-25T02:19:47.245Z,4.00
2019-06-25T02:20:47.271Z,4.00
2019-06-25T02:21:47.293Z,4.00
2019-06-25T02:22:47.318Z,4.00
2019-06-25T02:23:47.345Z,4.00
2019-06-25T02:24:47.380Z,4.00
2019-06-25T02:25:47.392Z,0.00
2019-06-25T02:26:47.421Z,0.00
2019-06-25T02:27:47.452Z,0.00
2019-06-25T02:28:47.471Z,0.00
2019-06-25T02:29:47.488Z,0.00
2019-06-25T02:31:05.608Z,0.00
2019-06-25T02:31:47.541Z,0.00
2019-06-25T02:32:47.570Z,0.00
2019-06-25T02:33:47.594Z,4.00
2019-06-25T02:34:47.608Z,4.00
2019-06-25T02:35:47.642Z,4.00
2019-06-25T02:36:47.658Z,4.00
2019-06-25T02:37:47.713Z,4.00
2019-06-25T02:38:47.705Z,4.00
2019-06-25T02:39:47.736Z,4.00
2019-06-25T02:40:47.758Z,4.00
2019-06-25T02:41:47.779Z,4.00
2019-06-25T02:42:47.810Z,4.00
2019-06-25T02:43:47.832Z,8.00
2019-06-25T02:44:47.857Z,4.00
2019-06-25T02:45:47.885Z,4.00
2019-06-25T02:46:47.901Z,8.00
2019-06-25T02:47:47.933Z,8.00
2019-06-25T02:48:47.951Z,8.00
2019-06-25T02:49:47.978Z,12.00
2019-06-25T02:50:47.994Z,8.00
2019-06-25T02:51:48.031Z,8.00
2019-06-25T02:52:48.047Z,12.00
2019-06-25T02:53:48.067Z,12.00
2019-06-25T02:54:48.099Z,12.00
2019-06-25T02:55:48.116Z,16.00
2019-06-25T02:56:48.147Z,16.00
2019-06-25T02:57:48.171Z,16.00
2019-06-25T02:58:48.194Z,20.00
2019-06-25T02:59:48.214Z,24.00
2019-06-25T03:00:48.236Z,24.00
2019-06-25T03:01:48.272Z,28.00
2019-06-25T03:02:48.283Z,32.00
2019-06-25T03:03:48.315Z,36.00
2019-06-25T03:04:48.334Z,36.00
2019-06-25T03:05:48.356Z,40.00
2019-06-25T03:06:48.382Z,44.00
2019-06-25T03:07:48.413Z,48.00
2019-06-25T03:08:48.437Z,52.00
2019-06-25T03:09:48.461Z,56.00
2019-06-25T03:10:48.486Z,60.00
2019-06-25T03:11:48.510Z,64.00
2019-06-25T03:12:48.528Z,68.00
2019-06-25T03:13:48.556Z,72.00
2019-06-25T03:14:48.580Z,76.00
2019-06-25T03:15:48.600Z,88.00
2019-06-25T03:16:48.628Z,92.00
2019-06-25T03:17:48.644Z,100.00
2019-06-25T03:18:48.669Z,112.00
2019-06-25T03:19:48.722Z,120.00
2019-06-25T03:20:48.727Z,132.00
2019-06-25T03:21:48.833Z,140.00
2019-06-25T03:22:48.764Z,156.00
2019-06-25T03:23:48.795Z,164.00
2019-06-25T03:24:48.821Z,176.00
2019-06-25T03:25:48.838Z,192.00
2019-06-25T03:26:48.860Z,204.00
2019-06-25T03:27:48.891Z,224.00
2019-06-25T03:28:48.909Z,232.00
2019-06-25T03:29:48.935Z,248.00
2019-06-25T03:30:48.961Z,268.00
2019-06-25T03:32:07.303Z,288.00
2019-06-25T03:32:49.094Z,312.00
2019-06-25T03:33:49.032Z,332.00
2019-06-25T03:34:49.060Z,352.00
2019-06-25T03:35:49.080Z,368.00
2019-06-25T03:36:49.106Z,384.00
2019-06-25T03:37:49.133Z,400.00
2019-06-25T03:38:49.162Z,420.00
2019-06-25T03:39:49.184Z,436.00
2019-06-25T03:40:49.204Z,456.00
2019-06-25T03:41:49.255Z,472.00
2019-06-25T03:42:49.247Z,492.00
2019-06-25T03:43:49.282Z,508.00
2019-06-25T03:44:49.300Z,528.00
2019-06-25T03:45:49.322Z,552.00
2019-06-25T03:46:49.341Z,576.00
2019-06-25T03:47:49.366Z,600.00
2019-06-25T03:48:49.405Z,620.00
2019-06-25T03:49:49.415Z,648.00
2019-06-25T03:50:49.447Z,672.00
2019-06-25T03:51:49.470Z,700.00
2019-06-25T03:52:49.491Z,728.00
2019-06-25T03:53:49.515Z,764.00
2019-06-25T03:54:49.592Z,804.00
2019-06-25T03:55:49.629Z,840.00
2019-06-25T03:56:49.584Z,872.00
2019-06-25T03:57:49.609Z,908.00
2019-06-25T03:58:49.632Z,936.00
2019-06-25T03:59:49.666Z,960.00
2019-06-25T04:00:49.681Z,988.00
2019-06-25T04:01:49.708Z,1016.00
2019-06-25T04:02:49.733Z,1040.00
2019-06-25T04:03:49.756Z,1060.00
2019-06-25T04:04:49.781Z,1072.00
2019-06-25T04:05:49.812Z,1084.00
2019-06-25T04:06:49.828Z,1092.00
2019-06-25T04:07:49.860Z,1100.00
2019-06-25T04:08:49.878Z,1100.00
2019-06-25T04:09:49.905Z,1100.00
2019-06-25T04:10:49.934Z,1088.00
2019-06-25T04:11:52.648Z,1076.00
2019-06-25T04:12:49.975Z,1068.00
2019-06-25T04:13:50.004Z,1064.00
2019-06-25T04:14:50.023Z,1064.00
2019-06-25T04:15:50.048Z,1076.00
2019-06-25T04:16:50.083Z,1068.00
2019-06-25T04:17:50.106Z,1064.00
2019-06-25T04:18:50.130Z,1056.00
2019-06-25T04:19:50.146Z,1060.00
2019-06-25T04:20:50.173Z,1056.00
2019-06-25T04:21:50.201Z,1060.00
2019-06-25T04:22:50.228Z,1072.00
2019-06-25T04:23:50.245Z,1076.00
2019-06-25T04:24:50.271Z,1092.00
2019-06-25T04:25:50.303Z,1100.00
2019-06-25T04:26:50.326Z,1128.00
2019-06-25T04:27:50.346Z,1148.00
2019-06-25T04:28:50.371Z,1140.00
2019-06-25T04:29:50.395Z,1124.00
2019-06-25T04:30:50.416Z,1108.00
2019-06-25T04:31:50.457Z,1100.00
2019-06-25T04:32:50.473Z,1112.00
2019-06-25T04:33:50.497Z,1132.00
2019-06-25T04:34:50.525Z,1116.00
2019-06-25T04:35:50.548Z,1132.00
2019-06-25T04:36:50.574Z,1164.00
2019-06-25T04:37:50.651Z,1184.00
2019-06-25T04:38:50.617Z,1212.00
2019-06-25T04:39:50.679Z,1248.00
2019-06-25T04:40:50.667Z,1280.00
2019-06-25T04:41:50.705Z,1312.00
2019-06-25T04:42:50.716Z,1340.00
2019-06-25T04:43:50.789Z,1376.00
2019-06-25T04:44:50.772Z,1456.00
2019-06-25T04:45:50.787Z,1508.00
2019-06-25T04:46:50.819Z,1576.00
2019-06-25T04:47:50.845Z,1620.00
2019-06-25T04:48:50.864Z,1680.00
2019-06-25T04:49:50.889Z,1716.00
2019-06-25T04:50:50.910Z,1776.00
2019-06-25T04:51:50.936Z,1784.00
2019-06-25T04:52:50.963Z,1784.00
2019-06-25T04:53:50.989Z,1836.00
2019-06-25T04:54:51.010Z,1892.00
2019-06-25T04:55:51.039Z,1968.00
2019-06-25T04:56:51.059Z,2040.00
2019-06-25T04:57:51.094Z,2124.00
2019-06-25T04:58:51.117Z,2124.00
2019-06-25T04:59:51.135Z,2200.00
2019-06-25T05:00:51.164Z,2252.00
2019-06-25T05:01:51.190Z,2304.00
2019-06-25T05:02:51.211Z,2312.00
2019-06-25T05:03:51.235Z,2344.00
2019-06-25T05:04:51.267Z,2396.00
2019-06-25T05:05:51.292Z,2348.00
2019-06-25T05:06:51.413Z,2324.00
2019-06-25T05:07:51.335Z,2308.00
2019-06-25T05:08:53.603Z,2260.00
2019-06-25T05:09:51.390Z,2244.00
2019-06-25T05:10:51.423Z,2124.00
2019-06-25T05:11:51.445Z,2016.00
2019-06-25T05:12:51.463Z,1980.00
2019-06-25T05:13:51.491Z,1960.00
2019-06-25T05:14:51.515Z,1916.00
2019-06-25T05:15:51.543Z,1944.00
2019-06-25T05:16:51.570Z,1932.00
2019-06-25T05:17:51.594Z,1932.00
2019-06-25T05:18:51.618Z,1940.00
2019-06-25T05:19:51.644Z,1948.00
2019-06-25T05:20:51.669Z,1972.00
2019-06-25T05:21:51.694Z,1964.00
2019-06-25T05:22:51.728Z,1972.00
2019-06-25T05:23:51.749Z,1996.00
2019-06-25T05:24:51.769Z,2016.00
2019-06-25T05:25:51.795Z,2000.00
2019-06-25T05:26:51.829Z,1976.00
2019-06-25T05:27:51.916Z,1956.00
2019-06-25T05:28:51.880Z,1952.00
2019-06-25T05:29:51.905Z,1920.00
2019-06-25T05:30:51.926Z,1872.00
2019-06-25T05:31:51.953Z,1836.00
2019-06-25T05:33:04.706Z,1760.00
2019-06-25T05:33:52.002Z,1720.00
2019-06-25T05:34:52.030Z,1656.00
2019-06-25T05:35:52.056Z,1572.00
2019-06-25T05:36:52.086Z,1532.00
2019-06-25T05:37:52.128Z,1476.00
2019-06-25T05:38:52.132Z,1408.00
2019-06-25T05:39:52.159Z,1380.00
2019-06-25T05:40:52.187Z,1348.00
2019-06-25T05:41:52.210Z,1348.00
2019-06-25T05:42:52.235Z,1344.00
2019-06-25T05:43:52.257Z,1324.00
2019-06-25T05:44:52.291Z,1328.00
2019-06-25T05:45:52.306Z,1336.00
2019-06-25T05:46:52.330Z,1376.00
2019-06-25T05:47:52.364Z,1400.00
2019-06-25T05:48:52.391Z,1444.00
2019-06-25T05:49:52.411Z,1764.00
2019-06-25T05:50:52.439Z,1692.00
2019-06-25T05:51:52.461Z,1536.00
2019-06-25T05:52:52.494Z,1568.00
2019-06-25T05:53:52.512Z,1936.00
2019-06-25T05:54:52.636Z,1772.00
2019-06-25T05:55:52.565Z,1844.00
2019-06-25T05:56:52.599Z,1840.00
2019-06-25T05:57:52.620Z,1984.00
2019-06-25T05:58:52.645Z,1960.00
2019-06-25T05:59:52.672Z,2100.00
2019-06-25T06:00:52.698Z,2108.00
2019-06-25T06:01:52.714Z,2252.00
2019-06-25T06:02:52.743Z,2272.00
2019-06-25T06:03:52.778Z,2292.00
2019-06-25T06:04:52.798Z,2348.00
2019-06-25T06:05:52.825Z,2528.00
2019-06-25T06:06:52.848Z,2468.00
2019-06-25T06:07:52.882Z,2464.00
2019-06-25T06:08:52.897Z,2600.00
2019-06-25T06:09:52.923Z,2744.00
2019-06-25T06:10:52.955Z,2724.00
2019-06-25T06:11:52.978Z,2720.00
2019-06-25T06:12:53.004Z,2584.00
2019-06-25T06:13:53.034Z,2420.00
2019-06-25T06:14:53.059Z,2484.00
2019-06-25T06:15:53.094Z,2916.00
2019-06-25T06:16:53.109Z,2876.00
2019-06-25T06:17:53.138Z,2932.00
2019-06-25T06:18:53.168Z,2852.00
2019-06-25T06:19:53.191Z,2600.00
2019-06-25T06:20:53.227Z,2544.00
2019-06-25T06:21:53.244Z,3244.00
2019-06-25T06:22:53.281Z,3600.00
2019-06-25T06:23:53.298Z,3648.00
2019-06-25T06:24:53.331Z,3212.00
2019-06-25T06:25:53.356Z,3672.00
2019-06-25T06:26:53.384Z,4140.00
2019-06-25T06:27:53.410Z,4044.00
2019-06-25T06:28:53.452Z,4140.00
2019-06-25T06:29:53.463Z,4400.00
2019-06-25T06:30:53.521Z,4308.00
2019-06-25T06:31:53.522Z,3552.00
2019-06-25T06:32:53.546Z,3200.00
2019-06-25T06:33:53.572Z,2980.00
2019-06-25T06:34:54.003Z,2864.00
2019-06-25T06:35:53.629Z,3296.00
2019-06-25T06:36:53.789Z,4468.00
2019-06-25T06:37:53.685Z,4080.00
2019-06-25T06:38:53.712Z,4492.00
2019-06-25T06:39:53.749Z,4864.00
2019-06-25T06:40:53.820Z,4656.00
2019-06-25T06:41:53.806Z,4612.00
2019-06-25T06:42:53.827Z,4632.00
2019-06-25T06:43:53.863Z,4528.00
2019-06-25T06:44:53.906Z,4252.00
2019-06-25T06:45:53.921Z,3624.00
2019-06-25T06:46:53.940Z,3568.00
2019-06-25T06:47:53.973Z,3836.00
2019-06-25T06:48:54.005Z,3576.00
2019-06-25T06:49:54.045Z,3816.00
2019-06-25T06:50:54.061Z,3908.00
2019-06-25T06:51:54.084Z,3912.00
2019-06-25T06:52:54.428Z,3980.00
2019-06-25T06:53:54.141Z,3836.00
2019-06-25T06:54:54.171Z,3868.00
2019-06-25T06:55:54.208Z,3656.00
2019-06-25T06:56:54.230Z,3548.00
2019-06-25T06:57:54.265Z,3472.00
2019-06-25T06:59:54.316Z,3268.00
2019-06-25T07:00:54.347Z,3084.00
2019-06-25T07:01:54.376Z,3076.00
2019-06-25T07:02:54.407Z,3368.00
2019-06-25T07:03:54.430Z,3108.00
2019-06-25T07:04:54.460Z,3132.00
2019-06-25T07:05:54.510Z,3100.00
2019-06-25T07:06:54.533Z,3068.00
2019-06-25T07:07:54.554Z,3216.00
2019-06-25T07:08:54.585Z,3308.00
2019-06-25T07:09:54.608Z,3144.00
2019-06-25T07:10:54.641Z,3280.00
2019-06-25T07:11:54.663Z,3052.00
2019-06-25T07:12:54.699Z,3524.00
2019-06-25T07:13:54.736Z,3640.00
2019-06-25T07:14:54.754Z,3832.00
2019-06-25T07:15:54.779Z,3412.00
2019-06-25T07:16:54.810Z,2984.00
2019-06-25T07:17:54.847Z,3408.00
2019-06-25T07:18:54.873Z,3684.00
2019-06-25T07:19:54.895Z,3872.00
2019-06-25T07:20:54.927Z,3680.00
2019-06-25T07:21:54.956Z,3352.00
2019-06-25T07:22:54.994Z,3172.00
2019-06-25T07:23:55.023Z,3288.00
2019-06-25T07:24:55.051Z,3236.00
2019-06-25T07:25:55.077Z,3512.00
2019-06-25T07:26:55.106Z,3340.00
2019-06-25T07:27:55.132Z,3852.00
2019-06-25T07:28:55.158Z,4080.00
2019-06-25T07:29:55.189Z,4452.00
2019-06-25T07:30:55.216Z,4104.00
2019-06-25T07:31:55.258Z,4180.00
2019-06-25T07:32:55.819Z,3684.00
2019-06-25T07:34:08.258Z,3584.00
2019-06-25T07:34:55.340Z,3388.00
2019-06-25T07:35:55.376Z,3880.00
2019-06-25T07:36:55.394Z,3712.00
2019-06-25T07:37:55.423Z,3792.00
2019-06-25T07:38:55.456Z,3804.00
2019-06-25T07:39:55.479Z,3800.00
2019-06-25T07:40:55.516Z,3220.00
2019-06-25T07:41:55.542Z,3320.00
2019-06-25T07:42:55.567Z,3840.00
2019-06-25T07:43:56.050Z,3740.00
2019-06-25T07:44:55.630Z,3916.00
2019-06-25T07:45:55.666Z,4000.00
2019-06-25T07:46:55.692Z,4192.00
2019-06-25T07:47:55.725Z,4072.00
2019-06-25T07:48:55.752Z,3792.00
2019-06-25T07:49:55.774Z,3680.00
2019-06-25T07:50:55.804Z,4092.00
2019-06-25T07:51:55.831Z,4052.00
2019-06-25T07:52:55.885Z,3908.00
2019-06-25T07:53:55.896Z,4064.00
2019-06-25T07:54:55.921Z,4228.00
2019-06-25T07:55:55.950Z,4108.00
2019-06-25T07:56:55.981Z,4164.00
2019-06-25T07:57:56.013Z,4304.00
2019-06-25T07:58:56.040Z,3972.00
2019-06-25T07:59:56.065Z,3660.00
2019-06-25T08:00:56.095Z,4008.00
2019-06-25T08:01:56.126Z,4100.00
2019-06-25T08:02:56.189Z,4172.00
2019-06-25T08:03:56.181Z,4100.00
2019-06-25T08:04:56.219Z,3784.00
2019-06-25T08:05:56.243Z,3948.00
2019-06-25T08:06:56.271Z,3744.00
2019-06-25T08:07:56.308Z,3640.00
2019-06-25T08:08:56.346Z,3760.00
2019-06-25T08:09:56.361Z,3616.00
2019-06-25T08:10:56.390Z,3140.00
2019-06-25T08:11:56.784Z,3216.00
2019-06-25T08:12:56.446Z,3652.00
2019-06-25T08:13:56.480Z,3816.00
2019-06-25T08:14:56.505Z,3836.00
2019-06-25T08:15:56.538Z,4152.00
2019-06-25T08:16:56.570Z,4220.00
2019-06-25T08:17:56.590Z,4452.00
2019-06-25T08:18:56.629Z,4236.00
2019-06-25T08:19:56.654Z,4072.00
2019-06-25T08:20:56.685Z,4076.00
2019-06-25T08:21:56.711Z,4100.00
2019-06-25T08:22:56.743Z,4104.00
2019-06-25T08:23:56.845Z,3996.00
2019-06-25T08:24:56.816Z,4076.00
2019-06-25T08:25:56.825Z,4296.00
2019-06-25T08:26:56.857Z,4640.00
2019-06-25T08:27:56.880Z,4296.00
2019-06-25T08:28:56.927Z,3828.00
2019-06-25T08:29:56.948Z,4012.00
2019-06-25T08:30:56.977Z,3704.00
2019-06-25T08:31:56.999Z,4216.00
2019-06-25T08:32:57.034Z,4296.00
2019-06-25T08:33:57.089Z,4252.00
2019-06-25T08:34:57.681Z,4128.00
2019-06-25T08:35:57.120Z,3856.00
2019-06-25T08:36:57.153Z,3900.00
2019-06-25T08:37:57.175Z,4204.00
2019-06-25T08:38:57.210Z,4320.00
2019-06-25T08:39:57.238Z,4288.00
2019-06-25T08:40:57.269Z,4444.00
2019-06-25T08:41:57.295Z,3908.00
2019-06-25T08:42:57.320Z,3868.00
2019-06-25T08:43:57.353Z,4304.00
2019-06-25T08:44:57.378Z,4204.00
2019-06-25T08:45:57.409Z,4320.00
2019-06-25T08:46:57.436Z,4472.00
2019-06-25T08:47:57.469Z,4256.00
2019-06-25T08:48:57.498Z,4328.00
2019-06-25T08:49:57.527Z,4368.00
2019-06-25T08:50:57.561Z,4444.00
2019-06-25T08:51:57.593Z,4464.00
2019-06-25T08:52:58.946Z,4264.00
2019-06-25T08:53:57.650Z,4084.00
2019-06-25T08:54:57.676Z,4368.00
2019-06-25T08:55:57.701Z,4356.00
2019-06-25T08:56:57.731Z,4288.00
2019-06-25T08:57:57.765Z,4436.00
2019-06-25T08:58:57.792Z,4404.00
2019-06-25T08:59:57.829Z,4216.00
2019-06-25T09:00:57.852Z,4340.00
2019-06-25T09:01:57.976Z,4084.00
2019-06-25T09:02:57.913Z,4468.00
2019-06-25T09:03:57.938Z,4360.00
2019-06-25T09:05:02.843Z,4232.00
2019-06-25T09:05:58.163Z,4192.00
2019-06-25T09:06:58.025Z,4204.00
2019-06-25T09:07:58.087Z,4736.00
2019-06-25T09:08:58.087Z,4228.00
2019-06-25T09:09:58.116Z,4688.00
2019-06-25T09:10:58.149Z,4216.00
2019-06-25T09:11:58.189Z,4240.00
2019-06-25T09:12:58.203Z,5148.00
2019-06-25T09:13:58.242Z,4152.00
2019-06-25T09:14:58.263Z,4344.00
2019-06-25T09:15:58.600Z,4244.00
2019-06-25T09:16:58.321Z,4692.00
2019-06-25T09:17:58.450Z,4564.00
2019-06-25T09:18:58.389Z,4332.00
2019-06-25T09:19:58.569Z,4124.00
2019-06-25T09:20:58.452Z,4192.00
2019-06-25T09:21:58.471Z,4040.00
2019-06-25T09:22:59.743Z,4204.00
2019-06-25T09:23:58.531Z,4376.00
2019-06-25T09:24:58.573Z,4572.00
2019-06-25T09:25:58.596Z,4148.00
2019-06-25T09:26:58.620Z,4140.00
2019-06-25T09:27:58.649Z,4044.00
2019-06-25T09:28:58.689Z,4192.00
2019-06-25T09:29:58.714Z,4404.00
2019-06-25T09:30:58.748Z,4356.00
2019-06-25T09:31:58.776Z,4464.00
2019-06-25T09:32:58.802Z,4136.00
2019-06-25T09:33:58.831Z,4128.00
2019-06-25T09:35:13.675Z,4076.00
2019-06-25T09:35:58.896Z,4048.00
2019-06-25T09:36:58.932Z,4056.00
2019-06-25T09:37:58.955Z,4576.00
2019-06-25T09:38:58.983Z,4096.00
2019-06-25T09:39:59.021Z,4132.00
2019-06-25T09:40:59.044Z,4020.00
2019-06-25T09:41:59.076Z,4060.00
2019-06-25T09:42:59.102Z,4152.00
2019-06-25T09:44:00.824Z,4028.00
2019-06-25T09:44:59.166Z,4224.00
2019-06-25T09:45:59.195Z,3976.00
2019-06-25T09:46:59.219Z,3912.00
2019-06-25T09:48:02.325Z,4024.00
2019-06-25T09:48:59.284Z,3976.00
2019-06-25T09:49:59.311Z,3924.00
2019-06-25T09:50:59.344Z,3928.00
2019-06-25T09:51:59.365Z,4388.00
2019-06-25T09:52:59.396Z,3988.00
2019-06-25T09:53:59.427Z,3908.00
2019-06-25T09:54:59.495Z,3936.00
2019-06-25T09:55:59.487Z,3940.00
2019-06-25T09:56:59.518Z,3768.00
2019-06-25T09:57:59.546Z,3908.00
2019-06-25T09:58:59.590Z,3988.00
2019-06-25T09:59:59.606Z,4184.00
2019-06-25T10:00:59.636Z,3840.00
2019-06-25T10:01:59.684Z,3976.00
2019-06-25T10:02:59.699Z,3868.00
2019-06-25T10:03:59.746Z,3756.00
2019-06-25T10:04:59.761Z,3796.00
2019-06-25T10:05:59.789Z,4068.00
2019-06-25T10:06:59.832Z,3760.00
2019-06-25T10:07:59.852Z,3756.00
2019-06-25T10:08:59.878Z,3784.00
2019-06-25T10:09:59.915Z,3728.00
2019-06-25T10:10:59.936Z,3624.00
2019-06-25T10:11:59.971Z,3816.00
2019-06-25T10:12:59.997Z,3704.00
2019-06-25T10:14:00.037Z,3656.00
2019-06-25T10:15:00.066Z,3480.00
2019-06-25T10:16:00.107Z,3664.00
2019-06-25T10:17:00.221Z,3632.00
2019-06-25T10:18:00.151Z,3588.00
2019-06-25T10:19:00.186Z,3660.00
2019-06-25T10:20:00.213Z,3676.00
2019-06-25T10:21:00.255Z,3584.00
2019-06-25T10:22:00.268Z,3884.00
2019-06-25T10:23:00.304Z,3576.00
2019-06-25T10:24:00.330Z,3512.00
2019-06-25T10:25:00.362Z,3660.00
2019-06-25T10:26:00.395Z,3936.00
2019-06-25T10:27:00.483Z,3552.00
2019-06-25T10:28:00.451Z,3468.00
2019-06-25T10:29:00.499Z,3600.00
2019-06-25T10:30:00.511Z,3488.00
2019-06-25T10:31:00.542Z,3540.00
2019-06-25T10:32:00.607Z,3528.00
2019-06-25T10:33:00.608Z,3536.00
2019-06-25T10:34:00.637Z,4156.00
2019-06-25T10:35:02.779Z,3420.00
2019-06-25T10:36:00.694Z,3520.00
2019-06-25T10:37:00.729Z,3472.00
2019-06-25T10:38:00.755Z,3496.00
2019-06-25T10:39:00.795Z,3396.00
2019-06-25T10:40:00.821Z,4032.00
2019-06-25T10:41:00.848Z,3360.00
2019-06-25T10:42:00.889Z,3428.00
2019-06-25T10:43:00.913Z,3732.00
2019-06-25T10:44:00.953Z,3696.00
2019-06-25T10:45:00.972Z,3392.00
2019-06-25T10:46:01.067Z,3368.00
2019-06-25T10:47:01.047Z,3296.00
2019-06-25T10:48:01.066Z,3560.00
2019-06-25T10:49:01.231Z,3328.00
2019-06-25T10:50:01.125Z,3240.00
2019-06-25T10:51:01.159Z,3332.00
2019-06-25T10:52:01.241Z,3332.00
2019-06-25T10:53:01.226Z,3412.00
2019-06-25T10:54:01.241Z,3492.00
2019-06-25T10:55:01.281Z,3300.00
2019-06-25T10:56:01.303Z,3204.00
2019-06-25T10:57:01.416Z,3532.00
2019-06-25T10:58:01.376Z,3948.00
2019-06-25T10:59:01.395Z,3592.00
2019-06-25T11:00:01.743Z,3300.00
2019-06-25T11:01:01.467Z,3600.00
2019-06-25T11:02:01.498Z,3300.00
2019-06-25T11:03:01.523Z,3344.00
2019-06-25T11:04:01.553Z,3480.00
2019-06-25T11:05:01.579Z,3388.00
2019-06-25T11:06:06.373Z,3700.00
2019-06-25T11:07:07.105Z,3428.00
2019-06-25T11:08:01.690Z,3292.00
2019-06-25T11:09:01.711Z,3468.00
2019-06-25T11:10:01.776Z,3268.00
2019-06-25T11:11:01.768Z,3268.00
2019-06-25T11:12:01.858Z,3144.00
2019-06-25T11:13:03.622Z,3160.00
2019-06-25T11:14:08.153Z,3436.00
2019-06-25T11:15:02.031Z,3076.00
2019-06-25T11:16:01.916Z,3404.00
2019-06-25T11:17:01.949Z,3276.00
2019-06-25T11:18:02.407Z,3192.00
2019-06-25T11:19:02.042Z,3172.00
2019-06-25T11:20:02.045Z,3196.00
2019-06-25T11:21:02.076Z,3212.00
2019-06-25T11:22:02.101Z,3308.00
2019-06-25T11:23:02.137Z,3356.00
2019-06-25T11:24:02.162Z,3584.00
2019-06-25T11:25:02.308Z,3056.00
2019-06-25T11:26:21.127Z,3168.00
2019-06-25T11:27:02.327Z,3632.00
2019-06-25T11:28:02.293Z,3512.00
2019-06-25T11:29:02.321Z,3300.00
2019-06-25T11:30:02.350Z,3128.00
2019-06-25T11:31:02.376Z,3080.00
2019-06-25T11:32:02.412Z,3100.00
2019-06-25T11:33:02.462Z,2960.00
2019-06-25T11:34:02.466Z,3212.00
2019-06-25T11:35:02.505Z,2996.00
2019-06-25T11:36:02.935Z,3100.00
2019-06-25T11:37:02.593Z,3560.00
2019-06-25T11:38:02.599Z,3100.00
2019-06-25T11:39:02.629Z,3128.00
2019-06-25T11:40:02.652Z,3760.00
2019-06-25T11:41:02.682Z,3340.00
2019-06-25T11:42:03.119Z,3120.00
2019-06-25T11:43:02.757Z,3064.00
2019-06-25T11:44:02.794Z,3128.00
2019-06-25T11:45:02.806Z,2964.00
2019-06-25T11:46:02.844Z,3052.00
2019-06-25T11:47:03.106Z,3228.00
2019-06-25T11:48:02.900Z,3300.00
2019-06-25T11:49:02.931Z,3084.00
2019-06-25T11:50:02.962Z,3384.00
2019-06-25T11:51:02.989Z,3156.00
2019-06-25T11:52:03.029Z,3220.00
2019-06-25T11:53:03.059Z,3152.00
2019-06-25T11:54:03.084Z,3112.00
2019-06-25T11:55:03.140Z,3176.00
2019-06-25T11:56:03.389Z,3252.00
2019-06-25T11:57:03.182Z,3240.00
2019-06-25T11:58:03.344Z,3232.00
2019-06-25T11:59:03.242Z,3220.00
2019-06-25T12:00:03.289Z,3252.00
2019-06-25T12:01:03.325Z,3128.00
2019-06-25T12:02:03.341Z,3204.00
2019-06-25T12:03:03.499Z,3212.00
2019-06-25T12:04:03.431Z,3360.00
2019-06-25T12:05:03.435Z,3272.00
2019-06-25T12:06:03.468Z,3508.00
2019-06-25T12:07:03.495Z,3048.00
2019-06-25T12:08:03.516Z,3144.00
2019-06-25T12:09:04.225Z,3060.00
2019-06-25T12:10:03.613Z,3344.00
2019-06-25T12:11:03.605Z,3108.00
2019-06-25T12:12:03.652Z,3032.00
2019-06-25T12:13:03.670Z,3084.00
2019-06-25T12:14:03.704Z,3060.00
2019-06-25T12:15:03.737Z,3348.00
2019-06-25T12:16:03.767Z,3004.00
2019-06-25T12:17:03.794Z,2996.00
2019-06-25T12:18:03.930Z,3052.00
2019-06-25T12:19:03.854Z,3072.00
2019-06-25T12:20:03.889Z,3956.00
2019-06-25T12:21:03.919Z,3088.00
2019-06-25T12:22:03.952Z,3112.00
2019-06-25T12:23:03.988Z,3024.00
2019-06-25T12:24:04.010Z,3012.00
2019-06-25T12:25:04.049Z,2832.00
2019-06-25T12:26:04.077Z,2792.00